Time;durP1;ratioP1;P1;durP2;ratioP2;P2;SDS_P1;SDS_P2;PMS_P1;PMS_P2;Temp;Humidity;BMP_temperature;BMP_pressure;BME280_temperature;BME280_humidity;BME280_pressure;Samples;Min_cycle;Max_cycle;Signal;HPM_P1;HPM_P2
2022/02/08 00:00:32;;;;;;;;;6.00;6.00;;;;;10.22;58.41;102943.59;5075057;27;46254;-77
2022/02/08 00:02:58;;;;;;;;;5.25;5.00;;;;;10.17;58.51;102931.00;5060142;28;45478;-76
2022/02/08 00:05:25;;;;;;;;;5.50;5.50;;;;;10.34;58.41;102958.25;5074088;28;45567;-77
2022/02/08 00:07:53;;;;;;;;;7.75;6.00;;;;;10.37;58.60;102961.00;5065645;28;45181;-76
2022/02/08 00:10:19;;;;;;;;;5.25;5.25;;;;;10.35;58.41;102950.38;5065928;28;47255;-78
2022/02/08 00:12:45;;;;;;;;;6.00;5.25;;;;;10.14;58.41;102912.41;5070359;28;45490;-76
2022/02/08 00:15:10;;;;;;;;;13.50;9.00;;;;;10.40;58.51;102948.88;5069075;28;45509;-76
2022/02/08 00:17:35;;;;;;;;;13.25;7.00;;;;;10.39;58.71;102952.34;5071108;28;45515;-76
2022/02/08 00:20:03;;;;;;;;;11.25;6.00;;;;;10.41;58.40;102962.97;5067571;28;45805;-76
2022/02/08 00:22:29;;;;;;;;;10.50;5.00;;;;;10.29;58.75;102933.38;5075351;28;45330;-77
2022/02/08 00:24:55;;;;;;;;;7.50;6.75;;;;;10.37;58.64;102950.44;5075560;28;45497;-76
2022/02/08 00:27:20;;;;;;;;;7.00;6.50;;;;;10.32;58.53;102944.94;5071328;27;45540;-77
2022/02/08 00:29:45;;;;;;;;;9.00;4.75;;;;;10.35;58.71;102939.81;5073820;28;53391;-76
2022/02/08 00:32:11;;;;;;;;;6.50;5.00;;;;;10.40;58.74;102947.97;5077205;27;45466;-76
2022/02/08 00:34:36;;;;;;;;;7.50;4.00;;;;;10.42;58.60;102951.56;5075489;28;52833;-76
2022/02/08 00:37:02;;;;;;;;;5.50;5.50;;;;;10.33;58.82;102936.19;5062794;28;53052;-76
2022/02/08 00:39:30;;;;;;;;;5.25;4.00;;;;;10.33;58.77;102938.84;5077138;27;47730;-76
2022/02/08 00:42:03;;;;;;;;;7.75;5.00;;;;;10.36;58.72;102949.56;5076982;27;45366;-77
2022/02/08 00:44:35;;;;;;;;;11.25;7.00;;;;;10.33;59.05;102946.75;5077155;28;45540;-77
2022/02/08 00:47:14;;;;;;;;;7.50;4.00;;;;;10.33;59.23;102948.50;5086731;27;45523;-77
2022/02/08 00:49:42;;;;;;;;;8.00;4.25;;;;;10.37;59.30;102947.81;5069920;28;46001;-77
2022/02/08 00:52:14;;;;;;;;;5.50;5.50;;;;;10.35;59.17;102952.13;5074629;27;45310;-77
2022/02/08 00:54:41;;;;;;;;;6.75;4.00;;;;;10.37;58.91;102948.72;5069801;28;45596;-77
2022/02/08 00:57:06;;;;;;;;;7.00;5.25;;;;;10.24;59.14;102933.16;5043192;28;45604;-77
2022/02/08 00:59:31;;;;;;;;;7.50;3.25;;;;;10.28;59.30;102948.31;5075016;28;55054;-78
2022/02/08 01:01:57;;;;;;;;;8.00;6.00;;;;;10.27;59.68;102949.13;5075928;27;59457;-76
2022/02/08 01:04:24;;;;;;;;;6.50;3.00;;;;;10.31;59.74;102961.63;5068107;27;47089;-77
2022/02/08 01:06:51;;;;;;;;;8.75;4.00;;;;;10.27;59.58;102954.41;5076433;27;45477;-76
2022/02/08 01:09:19;;;;;;;;;7.00;4.00;;;;;10.28;59.54;102958.88;5093967;27;45895;-77
2022/02/08 01:11:46;;;;;;;;;6.00;3.75;;;;;10.28;59.76;102958.88;5084867;27;45491;-77
2022/02/08 01:14:13;;;;;;;;;11.50;3.75;;;;;10.32;59.83;102955.50;5040391;27;45354;-77
2022/02/08 01:16:38;;;;;;;;;7.25;4.00;;;;;10.36;59.83;102954.84;5084755;27;45329;-77
2022/02/08 01:19:05;;;;;;;;;2.00;2.00;;;;;10.38;59.82;102960.16;5058770;28;51561;-76
2022/02/08 01:21:31;;;;;;;;;6.50;3.75;;;;;10.37;60.03;102959.28;5094755;27;45773;-76
2022/02/08 01:23:58;;;;;;;;;5.50;3.00;;;;;10.32;60.09;102941.41;5092013;27;45647;-77
2022/02/08 01:26:23;;;;;;;;;6.00;4.00;;;;;10.33;60.18;102935.28;5085508;27;45213;-76
2022/02/08 01:29:02;;;;;;;;;9.50;4.50;;;;;10.45;60.37;102965.81;5077791;27;46344;-76
2022/02/08 01:31:29;;;;;;;;;6.25;5.00;;;;;10.37;60.07;102937.25;5055350;28;45458;-76
2022/02/08 01:36:45;;;;;;;;;5.25;5.25;;;;;10.55;60.04;102971.53;5090035;27;45593;-76
2022/02/08 01:39:17;;;;;;;;;5.75;2.00;;;;;10.56;60.01;102973.34;5075835;27;47574;-77
2022/02/08 01:50:17;;;;;;;;;7.75;4.00;;;;;10.62;59.97;102970.97;5043038;27;45273;-76
2022/02/08 01:52:43;;;;;;;;;5.25;3.00;;;;;10.62;60.05;102963.94;5088723;27;45391;-76
2022/02/08 01:55:09;;;;;;;;;9.00;8.00;;;;;10.63;60.10;102970.13;5057332;27;46100;-76
2022/02/08 01:57:36;;;;;;;;;7.25;4.00;;;;;10.49;60.07;102933.44;5076781;27;45559;-77
2022/02/08 02:00:02;;;;;;;;;8.50;4.50;;;;;10.60;59.75;102954.13;5077515;27;46281;-77
2022/02/08 02:02:27;;;;;;;;;8.00;6.00;;;;;10.65;59.89;102961.44;5073163;27;45520;-76
2022/02/08 02:04:53;;;;;;;;;9.33;3.67;;;;;10.69;60.01;102966.00;5077834;27;46517;-77
2022/02/08 02:07:18;;;;;;;;;7.00;4.75;;;;;10.71;60.01;102968.75;5086235;27;45446;-77
2022/02/08 02:09:47;;;;;;;;;10.33;3.00;;;;;10.70;60.14;102958.97;5069590;27;45737;-76
2022/02/08 02:12:13;;;;;;;;;5.67;4.00;;;;;10.74;59.89;102966.22;5064384;28;46255;-76
2022/02/08 02:14:39;;;;;;;;;9.25;7.00;;;;;10.75;59.97;102976.84;5069186;27;45429;-77
2022/02/08 02:17:04;;;;;;;;;3.33;3.00;;;;;10.67;60.13;102956.22;5041514;28;46195;-76
2022/02/08 02:19:30;;;;;;;;;8.00;3.67;;;;;10.76;60.01;102975.13;5090614;27;45965;-77
2022/02/08 02:21:57;;;;;;;;;8.00;4.25;;;;;10.69;60.05;102958.09;5094446;27;45858;-76
2022/02/08 02:24:22;;;;;;;;;12.75;6.50;;;;;10.79;59.95;102972.63;5077078;27;45468;-76
2022/02/08 02:26:47;;;;;;;;;5.33;3.00;;;;;10.77;60.17;102958.44;5094539;27;45475;-77
2022/02/08 02:29:14;;;;;;;;;9.00;3.67;;;;;10.82;60.21;102970.13;5080240;27;47400;-76
2022/02/08 02:31:41;;;;;;;;;4.00;4.00;;;;;10.82;60.26;102964.84;5095267;27;45604;-76
2022/02/08 02:34:06;;;;;;;;;10.50;3.00;;;;;10.81;60.17;102951.53;5059208;27;45469;-76
2022/02/08 02:36:31;;;;;;;;;4.33;4.00;;;;;10.83;60.17;102956.06;5094620;27;45932;-76
2022/02/08 02:38:57;;;;;;;;;5.33;4.00;;;;;10.85;60.19;102954.38;5097549;27;60591;-76
2022/02/08 02:41:22;;;;;;;;;10.00;4.67;;;;;10.85;60.58;102941.16;5095797;27;45449;-76
2022/02/08 02:43:47;;;;;;;;;8.33;4.67;;;;;10.88;60.36;102941.31;5095096;27;45256;-76
2022/02/08 02:46:13;;;;;;;;;7.00;4.00;;;;;10.83;60.34;102928.75;5080387;27;53140;-76
2022/02/08 02:48:38;;;;;;;;;5.00;4.00;;;;;10.90;60.50;102944.00;5095954;27;60259;-76
2022/02/08 02:51:04;;;;;;;;;8.00;5.00;;;;;10.93;60.42;102949.44;5089387;27;45362;-76
2022/02/08 02:53:30;;;;;;;;;8.33;4.00;;;;;10.94;60.47;102954.78;5091536;27;45296;-76
2022/02/08 02:55:55;;;;;;;;;5.00;3.33;;;;;10.84;60.31;102931.44;5099213;27;45575;-76
2022/02/08 02:58:24;;;;;;;;;4.00;3.00;;;;;10.92;60.62;102945.91;5096161;27;46846;-76
2022/02/08 03:01:07;;;;;;;;;8.00;3.00;;;;;10.93;60.46;102946.81;5093074;27;45296;-76
2022/02/08 03:03:50;;;;;;;;;5.33;3.00;;;;;10.94;60.44;102952.16;5098604;27;45338;-77
2022/02/08 03:18:09;;;;;;;;;4.00;3.00;;;;;10.89;60.93;102952.78;5094277;27;45283;-77
2022/02/08 03:20:00;;;;;;;;;12.33;3.00;;;;;10.89;61.04;102944.84;5061420;27;47059;-77
2022/02/08 03:22:26;;;;;;;;;4.33;3.00;;;;;10.83;60.84;102936.66;5089606;27;54856;-76
2022/02/08 03:24:51;;;;;;;;;5.00;4.00;;;;;10.90;61.01;102962.50;5086723;27;45508;-76
2022/02/08 03:27:16;;;;;;;;;2.33;2.33;;;;;10.87;61.22;102946.53;5072198;27;50060;-77
2022/02/08 03:29:43;;;;;;;;;8.00;4.67;;;;;10.89;61.12;102955.44;5054498;27;59069;-77
2022/02/08 03:32:08;;;;;;;;;4.00;4.00;;;;;10.88;61.30;102959.81;5091576;27;45531;-77
2022/02/08 03:34:33;;;;;;;;;4.00;4.00;;;;;10.89;61.31;102955.44;5090303;27;52959;-77
2022/02/08 03:36:59;;;;;;;;;3.33;3.00;;;;;10.86;61.34;102953.53;5090234;27;45456;-77
2022/02/08 03:39:34;;;;;;;;;7.00;3.33;;;;;10.84;61.68;102955.22;5090392;27;57047;-77
2022/02/08 03:42:08;;;;;;;;;10.00;4.00;;;;;10.84;61.42;102952.59;5072718;27;45323;-77
2022/02/08 03:44:34;;;;;;;;;7.67;4.00;;;;;10.86;61.51;102976.41;5098501;27;45303;-77
2022/02/08 03:47:05;;;;;;;;;4.67;2.67;;;;;10.85;61.50;102954.38;5063076;27;45380;-77
2022/02/08 03:49:30;;;;;;;;;8.00;3.00;;;;;10.86;61.72;102972.03;5089121;27;46130;-76
2022/02/08 03:51:59;;;;;;;;;7.67;4.33;;;;;10.82;61.76;102959.56;5071071;27;45616;-77
2022/02/08 03:54:25;;;;;;;;;6.67;5.33;;;;;10.86;61.84;102961.47;5080676;27;45311;-77
2022/02/08 03:56:50;;;;;;;;;4.67;4.67;;;;;10.87;61.92;102967.69;5097225;27;53151;-77
2022/02/08 03:59:16;;;;;;;;;10.33;5.00;;;;;10.82;62.05;102951.63;5079323;27;45656;-77
2022/02/08 04:07:14;;;;;;;;;4.00;3.67;;;;;10.72;62.24;102947.66;5042667;27;45458;-77
2022/02/08 04:09:39;;;;;;;;;10.00;4.00;;;;;10.80;63.18;102963.84;5084317;27;46093;-76
2022/02/08 04:12:11;;;;;;;;;6.67;4.67;;;;;10.80;62.76;102968.22;5083264;27;45335;-76
2022/02/08 04:17:40;;;;;;;;;5.33;3.00;;;;;10.85;62.69;102969.34;5097455;27;45535;-77
2022/02/08 04:38:47;;;;;;;;;7.67;5.33;;;;;10.93;62.76;102967.94;5096958;27;45488;-77
2022/02/08 04:41:17;;;;;;;;;6.00;4.00;;;;;10.95;62.82;102959.25;5076447;27;46675;-76
2022/02/08 04:44:00;;;;;;;;;5.50;4.00;;;;;10.98;62.96;102969.06;5076943;27;46206;-76
2022/02/08 04:46:40;;;;;;;;;4.00;4.00;;;;;10.97;63.02;102960.22;5085421;27;45565;-76
2022/02/08 04:49:05;;;;;;;;;5.33;4.67;;;;;11.01;62.80;102964.78;5090787;27;45231;-76
2022/02/08 04:54:22;;;;;;;;;4.00;4.00;;;;;10.99;63.02;102957.63;5072957;27;45521;-77
2022/02/08 05:45:29;;;;;;;;;3.00;3.00;;;;;11.03;64.15;102962.22;5072559;27;45560;-76
2022/02/08 05:47:58;;;;;;;;;4.33;3.00;;;;;11.04;64.50;102963.13;5073142;28;45536;-78
2022/02/08 05:55:24;;;;;;;;;7.00;3.00;;;;;10.84;66.05;102930.53;5053739;27;45562;-77
2022/02/08 05:57:51;;;;;;;;;4.00;3.00;;;;;10.99;65.19;102961.19;5043854;27;46134;-78
2022/02/08 06:00:17;;;;;;;;;12.00;4.00;;;;;10.98;65.07;102951.44;5078013;27;45506;-80
2022/02/08 06:02:42;;;;;;;;;4.00;4.00;;;;;10.98;65.31;102953.19;5060085;27;45506;-76
2022/02/08 06:05:13;;;;;;;;;8.00;5.33;;;;;10.97;65.35;102952.28;5087309;27;46354;-75
2022/02/08 06:07:38;;;;;;;;;5.00;3.00;;;;;10.96;65.29;102947.81;5208485;22;46186;-76
2022/02/08 06:10:04;;;;;;;;;3.33;3.33;;;;;10.98;65.86;102937.34;5113272;27;45320;-78
2022/02/08 06:12:29;;;;;;;;;4.33;3.67;;;;;10.92;65.39;102926.47;5073868;27;45269;-76
2022/02/08 06:14:58;;;;;;;;;6.33;4.00;;;;;10.99;65.96;102941.78;5115765;27;45671;-78
2022/02/08 06:17:24;;;;;;;;;4.33;2.67;;;;;11.00;65.65;102939.19;5101993;27;45404;-75
2022/02/08 06:19:50;;;;;;;;;6.67;3.00;;;;;10.99;66.02;102934.75;5101557;27;45273;-76
2022/02/08 06:22:16;;;;;;;;;2.00;2.00;;;;;11.03;65.88;102941.09;5094396;27;45577;-76
2022/02/08 06:24:41;;;;;;;;;3.00;3.00;;;;;10.94;66.25;102932.75;5116890;27;46811;-76
2022/02/08 06:27:09;;;;;;;;;3.00;3.00;;;;;10.96;66.16;102929.31;5097295;27;48224;-77
2022/02/08 06:29:34;;;;;;;;;6.33;3.00;;;;;11.05;66.09;102949.97;5119798;27;45307;-76
2022/02/08 06:31:59;;;;;;;;;4.67;3.00;;;;;10.97;66.87;102938.16;5115742;27;45383;-76
2022/02/08 06:34:29;;;;;;;;;2.00;2.00;;;;;11.02;66.67;102945.47;5099710;27;52071;-77
2022/02/08 06:37:00;;;;;;;;;4.00;3.00;;;;;11.04;66.37;102947.28;5120168;27;45339;-77
2022/02/08 06:39:32;;;;;;;;;3.33;3.00;;;;;11.00;68.27;102952.41;5120384;27;45443;-80
2022/02/08 06:41:57;;;;;;;;;3.00;3.00;;;;;10.97;69.50;102951.38;5076638;27;45278;-82
2022/02/08 06:44:23;;;;;;;;;5.00;3.33;;;;;10.86;68.56;102944.72;5080881;27;53066;-81
2022/02/08 06:46:48;;;;;;;;;2.00;2.00;;;;;10.86;70.10;102958.81;5079452;27;45396;-81
2022/02/08 06:49:14;;;;;;;;;4.00;4.00;;;;;10.81;70.08;102968.28;5099564;27;45419;-80
2022/02/08 06:51:39;;;;;;;;;4.00;4.00;;;;;10.73;70.71;102961.78;5065928;27;45395;-82
2022/02/08 06:54:04;;;;;;;;;4.00;4.00;;;;;10.74;70.48;102968.88;5082757;27;47384;-81
2022/02/08 06:56:31;;;;;;;;;3.00;3.00;;;;;10.73;70.71;102969.69;5069896;27;61045;-83
2022/02/08 06:59:03;;;;;;;;;4.33;4.33;;;;;10.74;70.66;102971.50;5074606;27;45485;-82
2022/02/08 07:01:32;;;;;;;;;4.00;4.00;;;;;10.66;70.37;102960.59;5076016;27;45558;-80
2022/02/08 07:03:58;;;;;;;;;2.00;2.00;;;;;10.83;69.53;102974.56;5076808;27;46341;-75
2022/02/08 07:06:23;;;;;;;;;3.00;3.00;;;;;10.86;68.93;102979.06;5098867;27;45508;-76
2022/02/08 07:08:49;;;;;;;;;3.67;3.00;;;;;10.94;68.77;102973.28;5117632;27;45429;-76
2022/02/08 07:11:16;;;;;;;;;3.00;3.00;;;;;10.98;68.46;102977.88;5098104;27;45491;-76
2022/02/08 07:13:43;;;;;;;;;5.67;3.00;;;;;11.05;68.66;102976.41;5094841;27;46545;-76
2022/02/08 07:16:10;;;;;;;;;3.00;3.00;;;;;11.01;68.63;102967.44;5114766;27;46290;-76
2022/02/08 07:18:35;;;;;;;;;3.00;3.00;;;;;11.15;68.26;102988.28;5095076;27;45424;-76
2022/02/08 07:21:01;;;;;;;;;4.33;2.67;;;;;11.13;68.34;102985.59;5088713;27;45844;-77
2022/02/08 07:23:26;;;;;;;;;5.00;3.00;;;;;11.15;68.08;102983.00;5110327;27;59678;-77
2022/02/08 07:25:54;;;;;;;;;6.33;2.67;;;;;11.28;68.18;102995.91;5107839;27;58611;-75
2022/02/08 07:28:19;;;;;;;;;4.67;4.00;;;;;11.30;68.02;103006.56;5107717;27;46535;-76
2022/02/08 07:30:45;;;;;;;;;4.67;3.00;;;;;11.33;67.98;103009.31;5110158;27;45347;-77
2022/02/08 07:33:10;;;;;;;;;3.67;3.33;;;;;11.36;68.35;103012.09;5099068;27;45801;-76
2022/02/08 07:38:18;;;;;;;;;5.67;3.00;;;;;11.39;67.76;102999.00;5070608;27;45303;-76
2022/02/08 07:43:09;;;;;;;;;4.00;3.00;;;;;11.46;67.47;103012.56;5111434;27;46417;-76
2022/02/08 07:45:35;;;;;;;;;4.33;4.00;;;;;11.50;67.61;103010.94;5096984;27;58828;-76
2022/02/08 07:48:00;;;;;;;;;6.33;4.33;;;;;11.54;67.48;102999.66;5078889;27;54432;-76
2022/02/08 07:50:26;;;;;;;;;4.00;4.00;;;;;11.46;67.48;102986.13;5095289;27;45524;-76
2022/02/08 07:52:53;;;;;;;;;8.00;7.00;;;;;11.58;67.48;103003.34;5087306;27;47416;-76
2022/02/08 07:55:19;;;;;;;;;10.00;7.33;;;;;11.62;67.26;103007.91;5096778;27;45370;-76
2022/02/08 07:57:44;;;;;;;;;13.00;8.33;;;;;11.64;67.15;103007.13;5109414;27;45459;-75
2022/02/08 08:00:10;;;;;;;;;15.00;12.00;;;;;11.63;67.18;103002.69;5104617;27;45593;-76
2022/02/08 08:02:36;;;;;;;;;28.00;21.75;;;;;11.64;67.08;102995.63;5089515;27;45730;-76
2022/02/08 08:05:02;;;;;;;;;33.50;21.50;;;;;11.63;67.26;102984.16;5086131;27;45629;-76
2022/02/08 08:07:28;;;;;;;;;28.25;23.75;;;;;11.68;67.27;102981.69;5092128;27;45520;-76
2022/02/08 08:09:53;;;;;;;;;17.50;17.00;;;;;11.70;67.46;102986.19;5112168;27;50447;-76
2022/02/08 08:12:21;;;;;;;;;14.00;12.00;;;;;11.74;67.15;102996.09;5090771;27;45956;-76
2022/02/08 08:14:46;;;;;;;;;10.00;8.00;;;;;11.75;67.15;102983.75;5109817;27;46582;-75
2022/02/08 08:19:50;;;;;;;;;5.67;5.67;;;;;11.81;67.20;102984.00;5108980;27;45489;-76
2022/02/08 08:22:17;;;;;;;;;7.67;7.33;;;;;11.80;66.88;102976.91;5083641;27;46812;-76
2022/02/08 08:24:42;;;;;;;;;9.33;5.00;;;;;11.86;66.82;102989.50;5095991;27;45515;-77
2022/02/08 08:27:08;;;;;;;;;4.33;4.33;;;;;11.88;67.04;102982.53;5095050;27;45536;-74
2022/02/08 08:29:34;;;;;;;;;6.00;5.33;;;;;11.90;66.70;102989.69;5112460;27;45625;-76
2022/02/08 08:31:59;;;;;;;;;4.00;4.00;;;;;11.94;66.90;102988.09;5090625;27;46433;-75
2022/02/08 08:34:24;;;;;;;;;5.00;5.00;;;;;11.87;66.87;102973.69;5071261;27;45525;-76
2022/02/08 08:36:51;;;;;;;;;5.00;5.00;;;;;11.96;66.59;102989.94;5090911;27;54591;-74
2022/02/08 08:39:22;;;;;;;;;10.00;5.00;;;;;11.97;66.59;102986.44;5105365;27;45562;-75
2022/02/08 08:41:55;;;;;;;;;7.33;5.33;;;;;12.01;66.46;102993.69;5089246;27;47841;-75
2022/02/08 08:52:03;;;;;;;;;8.67;4.67;;;;;12.10;66.46;102989.59;5108521;27;46382;-75
2022/02/08 08:54:28;;;;;;;;;5.33;5.33;;;;;12.11;66.50;102996.69;5107919;27;56871;-75
2022/02/08 08:56:54;;;;;;;;;6.00;5.67;;;;;12.15;66.60;102990.69;5111415;27;45668;-75
2022/02/08 08:59:20;;;;;;;;;4.00;4.00;;;;;12.17;66.36;102999.59;5111431;27;53112;-76
2022/02/08 09:01:48;;;;;;;;;11.33;5.00;;;;;12.12;66.20;102985.25;5092919;27;45895;-75
2022/02/08 09:04:15;;;;;;;;;6.67;5.00;;;;;12.21;66.04;103001.50;5073064;27;45443;-75
2022/02/08 09:06:40;;;;;;;;;4.67;4.67;;;;;12.12;65.97;102983.50;5116675;27;45573;-75
2022/02/08 09:09:12;;;;;;;;;9.00;5.00;;;;;12.22;66.13;103001.56;5076029;27;45318;-75
2022/02/08 09:14:11;;;;;;;;;9.00;6.00;;;;;12.24;66.08;102993.66;5093423;27;45452;-75
2022/02/08 09:16:45;;;;;;;;;5.33;5.00;;;;;12.24;65.99;102985.72;5106121;27;45336;-76
2022/02/08 09:30:07;;;;;;;;;5.00;5.00;;;;;12.29;65.69;102977.09;5106448;27;45435;-76
2022/02/08 09:32:43;;;;;;;;;9.00;5.00;;;;;12.23;65.48;102975.97;5086026;27;45533;-76
2022/02/08 09:35:09;;;;;;;;;13.00;9.00;;;;;12.30;65.46;102991.25;5094299;27;45477;-77
2022/02/08 09:37:35;;;;;;;;;9.67;5.67;;;;;12.26;65.75;102970.81;5106513;27;45367;-76
2022/02/08 09:40:00;;;;;;;;;11.33;6.00;;;;;12.37;65.88;102976.50;5111350;27;45524;-76
2022/02/08 09:42:26;;;;;;;;;9.00;6.33;;;;;12.39;65.47;102981.00;5111622;27;46272;-76
2022/02/08 09:44:53;;;;;;;;;6.00;6.00;;;;;12.43;65.34;102992.63;5114661;27;45315;-76
2022/02/08 09:47:28;;;;;;;;;10.33;6.00;;;;;12.44;65.41;102989.16;5094566;27;45549;-75
2022/02/08 09:49:55;;;;;;;;;8.00;5.67;;;;;12.45;65.40;102989.19;5115104;27;46592;-76
2022/02/08 09:52:21;;;;;;;;;9.00;7.33;;;;;12.51;65.55;102984.13;5114219;27;47335;-76
2022/02/08 09:54:47;;;;;;;;;8.00;8.00;;;;;12.55;65.20;102993.09;5111400;27;45575;-75
2022/02/08 09:57:14;;;;;;;;;9.00;5.00;;;;;12.49;65.24;102982.28;5114652;27;45519;-76
2022/02/08 09:59:41;;;;;;;;;7.00;6.00;;;;;12.60;65.10;102994.16;5097023;27;45789;-75
2022/02/08 10:02:06;;;;;;;;;8.00;6.00;;;;;12.61;64.92;102992.41;5102173;27;45923;-75
2022/02/08 10:04:32;;;;;;;;;5.33;5.33;;;;;12.63;64.89;102993.41;5116328;27;45758;-74
2022/02/08 10:07:09;;;;;;;;;10.00;8.00;;;;;12.57;64.94;102975.53;5116887;27;45456;-75
2022/02/08 10:09:35;;;;;;;;;9.67;6.00;;;;;12.70;64.84;102992.78;5092595;27;45641;-74
2022/02/08 10:12:00;;;;;;;;;10.67;6.00;;;;;12.69;64.92;102980.38;5112520;27;54368;-74
2022/02/08 10:22:44;;;;;;;;;6.00;6.00;;;;;12.69;64.27;102977.72;5117103;27;45548;-74
2022/02/08 10:25:15;;;;;;;;;8.00;6.00;;;;;12.78;64.50;102994.88;5117258;27;45413;-74
2022/02/08 10:27:48;;;;;;;;;9.00;8.67;;;;;12.82;64.31;102985.25;5118608;27;45576;-74
2022/02/08 10:38:38;;;;;;;;;7.00;6.00;;;;;13.07;63.86;102998.56;5097577;27;45628;-75
2022/02/08 10:41:17;;;;;;;;;8.00;6.67;;;;;13.12;64.01;102993.41;5115686;27;45438;-74
2022/02/08 10:43:42;;;;;;;;;7.33;7.33;;;;;13.15;63.81;102995.25;5112392;27;46718;-75
2022/02/08 10:46:20;;;;;;;;;10.33;6.67;;;;;13.15;64.00;102980.25;5108095;27;45597;-75
2022/02/08 10:48:46;;;;;;;;;7.67;7.33;;;;;13.27;63.81;102987.78;5092610;27;45531;-74
2022/02/08 10:51:14;;;;;;;;;6.33;6.33;;;;;13.31;63.78;102989.66;5113348;27;45460;-75
2022/02/08 10:53:51;;;;;;;;;11.33;7.00;;;;;13.35;63.53;102995.13;5094857;27;46450;-76
2022/02/08 10:56:17;;;;;;;;;9.33;6.67;;;;;13.39;63.71;102993.50;5114787;27;45531;-75
2022/02/08 10:58:51;;;;;;;;;8.00;6.67;;;;;13.44;63.54;102996.31;5076168;27;45576;-74
2022/02/08 11:01:22;;;;;;;;;6.00;6.00;;;;;13.49;63.54;102997.38;5084929;27;45648;-75
2022/02/08 11:03:55;;;;;;;;;10.67;7.00;;;;;13.48;63.52;102990.25;5110897;27;46494;-75
2022/02/08 11:19:40;;;;;;;;;12.67;6.67;;;;;13.51;63.37;102980.63;5098283;27;45491;-73
2022/02/08 11:22:23;;;;;;;;;7.33;7.00;;;;;13.58;63.43;102982.66;5118762;27;45259;-73
2022/02/08 11:24:51;;;;;;;;;7.00;6.00;;;;;13.59;63.08;102971.19;5117265;27;47702;-74
2022/02/08 11:27:19;;;;;;;;;5.33;5.33;;;;;13.62;62.86;102975.69;5118415;27;45244;-74
2022/02/08 11:29:55;;;;;;;;;5.00;5.00;;;;;13.54;62.82;102953.31;5111798;27;45445;-74
2022/02/08 11:45:44;;;;;;;;;8.67;7.00;;;;;13.71;63.17;102953.84;5117444;27;46488;-73
2022/02/08 11:48:28;;;;;;;;;7.33;7.00;;;;;13.63;62.71;102940.31;5113247;27;45465;-73
2022/02/08 12:01:42;;;;;;;;;9.00;6.67;;;;;13.92;62.84;102911.13;5114804;27;45418;-73
2022/02/08 12:04:45;;;;;;;;;7.00;7.00;;;;;13.97;62.40;102915.72;5116874;27;45468;-73
2022/02/08 13:04:48;;;;;;;;;14.00;8.67;;;;;13.59;62.24;102853.50;5113332;27;45211;-75
2022/02/08 14:01:56;;;;;;;;;5.00;4.67;;;;;13.79;61.67;102841.69;5110292;27;45479;-74
2022/02/08 14:07:14;;;;;;;;;9.00;5.00;;;;;13.72;61.38;102829.09;5111891;27;45580;-74
2022/02/08 14:18:02;;;;;;;;;9.33;7.33;;;;;13.66;62.37;102825.38;5106391;27;45438;-74
2022/02/08 14:20:43;;;;;;;;;5.67;3.33;;;;;13.66;62.54;102822.72;5110510;27;45512;-74
2022/02/08 14:23:50;;;;;;;;;7.00;6.00;;;;;13.57;62.19;102813.59;5115308;27;45460;-74
2022/02/08 14:37:03;;;;;;;;;11.67;8.33;;;;;13.68;62.76;102818.34;5112696;27;45382;-74
2022/02/08 15:08:54;;;;;;;;;9.00;9.00;;;;;13.47;62.94;102822.13;5113323;27;45505;-73
2022/02/08 15:11:19;;;;;;;;;9.33;8.00;;;;;13.44;63.24;102814.09;5116057;27;47310;-73
2022/02/08 15:13:48;;;;;;;;;6.67;5.33;;;;;13.41;63.19;102821.06;5112702;27;45455;-74
2022/02/08 15:18:48;;;;;;;;;10.33;7.00;;;;;13.35;63.24;102816.47;5114359;27;45503;-74
2022/02/08 15:21:19;;;;;;;;;6.33;6.33;;;;;13.32;63.22;102817.28;5117180;27;58981;-74
2022/02/08 15:23:45;;;;;;;;;10.33;9.33;;;;;13.27;63.48;102820.63;5114043;27;45726;-73
2022/02/08 15:26:10;;;;;;;;;9.33;7.00;;;;;13.27;63.30;102824.19;5116507;27;48681;-74
2022/02/08 15:28:36;;;;;;;;;10.67;7.67;;;;;13.23;63.30;102819.63;5112925;27;45398;-74
2022/02/08 15:31:01;;;;;;;;;10.00;6.00;;;;;13.33;63.38;102834.09;5118032;27;47531;-75
2022/02/08 15:33:27;;;;;;;;;9.67;5.00;;;;;13.27;63.28;102813.59;5113089;27;54202;-75
2022/02/08 15:35:53;;;;;;;;;7.67;7.67;;;;;13.26;63.29;102809.13;5093052;27;45211;-75
2022/02/08 15:38:19;;;;;;;;;7.00;7.00;;;;;13.23;63.18;102806.38;5116383;27;45203;-75
2022/02/08 15:40:45;;;;;;;;;10.00;6.33;;;;;13.35;63.07;102821.75;5112017;27;46776;-75
2022/02/08 15:43:11;;;;;;;;;8.33;6.00;;;;;13.38;63.05;102827.19;5098289;27;45496;-74
2022/02/08 15:45:44;;;;;;;;;7.00;4.67;;;;;13.37;63.06;102820.09;5117292;27;45358;-75
2022/02/08 15:48:12;;;;;;;;;6.00;6.00;;;;;13.36;62.84;102824.47;5113449;27;45569;-75
2022/02/08 16:00:33;;;;;;;;;5.00;5.00;;;;;13.40;62.51;102809.53;5115372;27;45638;-75
2022/02/08 16:01:16;;;;;;;;;11.33;8.00;;;;;13.36;63.03;102807.63;5109637;27;46054;-75
2022/02/08 16:09:27;;;;;;;;;7.67;7.67;;;;;13.28;63.11;102815.38;5113514;27;45763;-74
2022/02/08 16:12:08;;;;;;;;;10.00;9.67;;;;;13.22;63.07;102799.28;5114115;27;46450;-77
2022/02/08 16:25:19;;;;;;;;;9.00;9.00;;;;;13.08;62.76;102820.00;5114174;27;45389;-75
2022/02/08 16:28:03;;;;;;;;;11.33;9.33;;;;;13.04;63.02;102825.16;5115567;27;45330;-74
2022/02/08 16:47:08;;;;;;;;;10.33;9.67;;;;;12.93;63.44;102823.91;5114132;27;45350;-74
2022/02/08 16:54:43;;;;;;;;;11.00;7.00;;;;;12.92;63.85;102819.44;5108020;27;46474;-75
2022/02/08 16:57:19;;;;;;;;;9.67;9.67;;;;;12.94;63.90;102823.03;5113611;27;45496;-74
2022/02/08 16:59:45;;;;;;;;;12.00;10.67;;;;;12.93;63.92;102827.44;5107903;27;45462;-74
2022/02/08 17:02:17;;;;;;;;;12.00;12.00;;;;;12.85;63.92;102808.66;5114743;27;46154;-74
2022/02/08 17:04:43;;;;;;;;;12.00;10.67;;;;;12.95;63.80;102827.53;5112932;27;48010;-74
2022/02/08 17:07:08;;;;;;;;;10.00;10.00;;;;;12.94;63.83;102826.59;5108951;27;45411;-74
2022/02/08 17:09:47;;;;;;;;;10.00;10.00;;;;;12.92;64.19;102825.66;5117151;27;45641;-74
2022/02/08 17:17:50;;;;;;;;;11.67;11.67;;;;;12.94;64.23;102818.63;5111092;27;45523;-74
2022/02/08 17:47:41;;;;;;;;;15.33;14.00;;;;;12.95;63.96;102827.53;5114488;27;45370;-74
2022/02/08 17:50:10;;;;;;;;;13.67;13.67;;;;;12.85;64.37;102810.41;5117105;27;45463;-74
2022/02/08 17:52:37;;;;;;;;;17.33;12.67;;;;;12.91;64.51;102823.84;5116579;27;45630;-74
2022/02/08 17:55:04;;;;;;;;;15.75;13.50;;;;;12.92;64.46;102820.34;5117450;27;45651;-74
2022/02/08 17:57:30;;;;;;;;;16.00;14.00;;;;;12.93;64.21;102827.44;5097717;27;47592;-74
2022/02/08 17:59:57;;;;;;;;;14.00;12.67;;;;;12.94;64.42;102831.88;5114596;27;45504;-74
2022/02/08 18:02:22;;;;;;;;;17.00;14.67;;;;;12.94;64.51;102828.34;5110050;27;45404;-74
2022/02/08 18:04:49;;;;;;;;;17.33;14.00;;;;;12.94;64.02;102831.88;5094471;27;45627;-74
2022/02/08 18:09:54;;;;;;;;;19.67;13.33;;;;;12.93;64.54;102831.84;5028004;28;45574;-76
2022/02/08 18:12:21;;;;;;;;;15.00;13.67;;;;;12.92;64.55;102820.34;5036883;28;45542;-76
2022/02/08 18:15:07;;;;;;;;;14.00;12.33;;;;;12.91;64.33;102823.84;5033278;28;45468;-75
2022/02/08 18:17:37;;;;;;;;;17.67;12.67;;;;;12.94;64.64;102831.88;5037974;28;47032;-76
2022/02/08 19:03:20;;;;;;;;;15.33;15.33;;;;;12.82;64.96;102840.34;5021424;28;45305;-74
2022/02/08 19:22:09;;;;;;;;;11.67;10.67;;;;;12.85;64.33;102836.91;5014531;28;45816;-75
2022/02/08 19:24:34;;;;;;;;;11.67;10.67;;;;;12.75;64.31;102811.84;5030684;28;45460;-74
2022/02/08 19:27:01;;;;;;;;;18.33;16.33;;;;;12.79;63.98;102827.00;5025009;28;45919;-74
2022/02/08 19:29:30;;;;;;;;;10.00;8.33;;;;;12.79;64.15;102829.66;5017443;28;45429;-75
2022/02/08 19:31:56;;;;;;;;;10.33;9.00;;;;;12.66;64.48;102811.50;5018454;28;45865;-74
2022/02/08 19:34:24;;;;;;;;;10.00;8.00;;;;;12.73;64.26;102815.25;5026275;28;45467;-74
2022/02/08 19:36:52;;;;;;;;;9.67;8.33;;;;;12.73;64.13;102815.25;5024834;28;45529;-75
2022/02/08 19:39:21;;;;;;;;;10.67;7.00;;;;;12.71;64.36;102830.22;5000564;28;45626;-74
2022/02/08 19:41:48;;;;;;;;;9.67;7.67;;;;;12.75;63.93;102837.44;5019469;28;45726;-74